createdAt,value
2023-12-22T00:00:40.651Z,0.00
2023-12-22T00:01:40.555Z,0.00
2023-12-22T00:02:40.511Z,0.00
2023-12-22T00:03:40.606Z,0.00
2023-12-22T00:04:40.583Z,0.00
2023-12-22T00:05:40.602Z,0.00
2023-12-22T00:06:40.529Z,0.00
2023-12-22T00:07:40.594Z,0.00
2023-12-22T00:08:40.529Z,0.00
2023-12-22T00:09:40.599Z,0.00
2023-12-22T00:10:40.585Z,0.00
2023-12-22T00:11:40.543Z,0.00
2023-12-22T00:12:40.547Z,0.00
2023-12-22T00:13:40.581Z,0.00
2023-12-22T00:14:40.561Z,0.00
2023-12-22T00:15:40.566Z,0.00
2023-12-22T00:16:40.598Z,0.00
2023-12-22T00:17:40.576Z,0.00
2023-12-22T00:18:40.640Z,0.00
2023-12-22T00:19:40.727Z,0.00
2023-12-22T00:20:40.605Z,0.00
2023-12-22T00:21:40.607Z,0.00
2023-12-22T00:22:40.679Z,0.00
2023-12-22T00:23:40.631Z,0.00
2023-12-22T00:24:40.641Z,0.00
2023-12-22T00:25:40.638Z,0.00
2023-12-22T00:26:40.620Z,0.00
2023-12-22T00:27:40.641Z,0.00
2023-12-22T00:28:40.645Z,0.00
2023-12-22T00:29:40.649Z,0.00
2023-12-22T00:30:40.647Z,0.00
2023-12-22T00:31:40.705Z,0.00
2023-12-22T00:32:40.699Z,0.00
2023-12-22T00:33:40.718Z,0.00
2023-12-22T00:34:40.643Z,0.00
2023-12-22T00:35:40.645Z,0.00
2023-12-22T00:36:40.659Z,0.00
2023-12-22T00:37:40.689Z,0.00
2023-12-22T00:38:40.646Z,0.00
2023-12-22T00:39:40.693Z,0.00
2023-12-22T00:40:40.686Z,0.00
2023-12-22T00:41:40.660Z,0.00
2023-12-22T00:42:40.672Z,0.00
2023-12-22T00:43:40.735Z,0.00
2023-12-22T00:44:40.675Z,0.00
2023-12-22T00:45:40.674Z,0.00
2023-12-22T00:46:40.812Z,0.00
2023-12-22T00:47:40.702Z,0.00
2023-12-22T00:48:40.719Z,0.00
2023-12-22T00:49:40.702Z,0.00
2023-12-22T00:50:40.705Z,0.00
2023-12-22T00:51:40.699Z,0.00
2023-12-22T00:52:40.780Z,0.00
2023-12-22T00:53:40.703Z,0.00
2023-12-22T00:54:40.705Z,0.00
2023-12-22T00:55:40.748Z,0.00
2023-12-22T00:56:40.717Z,0.00
2023-12-22T00:57:40.747Z,0.00
2023-12-22T00:58:40.761Z,0.00
2023-12-22T00:59:40.731Z,0.00
2023-12-22T01:00:40.809Z,0.00
2023-12-22T01:01:40.785Z,0.00
2023-12-22T01:02:40.768Z,0.00
2023-12-22T01:03:40.801Z,0.00
2023-12-22T01:04:40.805Z,0.00
2023-12-22T01:05:40.857Z,0.00
2023-12-22T01:06:41.197Z,0.00
2023-12-22T01:07:40.785Z,0.00
2023-12-22T01:08:40.778Z,0.00
2023-12-22T01:09:40.780Z,0.00
2023-12-22T01:10:40.816Z,0.00
2023-12-22T01:11:40.763Z,0.00
2023-12-22T01:12:40.836Z,0.00
2023-12-22T01:13:40.803Z,0.00
2023-12-22T01:14:40.777Z,0.00
2023-12-22T01:15:40.791Z,0.00
2023-12-22T01:16:40.825Z,0.00
2023-12-22T01:17:40.899Z,0.00
2023-12-22T01:18:40.873Z,0.00
2023-12-22T01:19:40.856Z,0.00
2023-12-22T01:20:40.792Z,0.00
2023-12-22T01:21:40.804Z,0.00
2023-12-22T01:22:40.850Z,0.00
2023-12-22T01:23:40.806Z,0.00
2023-12-22T01:24:40.843Z,0.00
2023-12-22T01:25:40.847Z,0.00
2023-12-22T01:26:40.816Z,0.00
2023-12-22T01:27:40.821Z,0.00
2023-12-22T01:28:40.918Z,0.00
2023-12-22T01:29:40.859Z,0.00
2023-12-22T01:30:40.832Z,0.00
2023-12-22T01:31:40.877Z,0.00
2023-12-22T01:32:40.855Z,0.00
2023-12-22T01:33:40.883Z,0.00
2023-12-22T01:34:40.868Z,0.00
2023-12-22T01:35:40.850Z,0.00
2023-12-22T01:36:40.857Z,0.00
2023-12-22T01:37:40.887Z,0.00
2023-12-22T01:38:40.857Z,0.00
2023-12-22T01:39:40.861Z,0.00
2023-12-22T01:40:40.949Z,0.00
2023-12-22T01:41:40.872Z,0.00
2023-12-22T01:42:40.875Z,0.00
2023-12-22T01:43:40.934Z,0.00
2023-12-22T01:44:40.907Z,0.00
2023-12-22T01:45:40.886Z,0.00
2023-12-22T01:46:40.912Z,0.00
2023-12-22T01:47:40.964Z,0.00
2023-12-22T01:48:40.994Z,0.00
2023-12-22T01:49:40.909Z,0.00
2023-12-22T01:50:40.915Z,0.00
2023-12-22T01:51:40.967Z,0.00
2023-12-22T01:52:40.960Z,0.00
2023-12-22T01:53:40.910Z,0.00
2023-12-22T01:54:40.914Z,0.00
2023-12-22T01:55:41.000Z,0.00
2023-12-22T01:56:40.940Z,0.00
2023-12-22T01:57:40.930Z,0.00
2023-12-22T01:58:40.948Z,0.00
2023-12-22T01:59:40.937Z,0.00
2023-12-22T02:00:40.967Z,0.00
2023-12-22T02:01:40.973Z,0.00
2023-12-22T02:02:40.943Z,0.00
2023-12-22T02:03:40.982Z,0.00
2023-12-22T02:04:41.025Z,0.00
2023-12-22T02:05:40.994Z,0.00
2023-12-22T02:06:40.959Z,0.00
2023-12-22T02:07:41.035Z,0.00
2023-12-22T02:08:40.971Z,0.00
2023-12-22T02:09:41.012Z,0.00
2023-12-22T02:10:41.059Z,0.00
2023-12-22T02:11:40.984Z,0.00
2023-12-22T02:12:40.996Z,0.00
2023-12-22T02:13:41.060Z,0.00
2023-12-22T02:14:42.146Z,0.00
2023-12-22T02:15:41.000Z,0.00
2023-12-22T02:16:41.012Z,0.00
2023-12-22T02:17:41.029Z,0.00
2023-12-22T02:18:41.037Z,0.00
2023-12-22T02:19:41.027Z,0.00
2023-12-22T02:20:41.030Z,0.00
2023-12-22T02:21:41.024Z,0.00
2023-12-22T02:22:41.078Z,0.00
2023-12-22T02:23:41.023Z,0.00
2023-12-22T02:24:41.023Z,0.00
2023-12-22T02:25:41.090Z,0.00
2023-12-22T02:26:41.036Z,0.00
2023-12-22T02:27:41.034Z,0.00
2023-12-22T02:28:41.136Z,0.00
2023-12-22T02:29:41.049Z,0.00
2023-12-22T02:30:41.050Z,0.00
2023-12-22T02:31:41.083Z,0.00
2023-12-22T02:32:41.065Z,0.00
2023-12-22T02:33:41.070Z,0.00
2023-12-22T02:34:41.111Z,0.00
2023-12-22T02:35:41.070Z,0.00
2023-12-22T02:36:41.070Z,0.00
2023-12-22T02:37:41.091Z,0.00
2023-12-22T02:38:41.101Z,0.00
2023-12-22T02:39:41.082Z,0.00
2023-12-22T02:40:41.147Z,0.00
2023-12-22T02:41:41.088Z,0.00
2023-12-22T02:42:41.097Z,0.00
2023-12-22T02:43:41.158Z,0.00
2023-12-22T02:44:41.117Z,0.00
2023-12-22T02:45:41.102Z,0.00
2023-12-22T02:46:41.142Z,0.00
2023-12-22T02:47:41.129Z,0.00
2023-12-22T02:48:41.140Z,0.00
2023-12-22T02:49:41.156Z,0.00
2023-12-22T02:50:41.131Z,0.00
2023-12-22T02:51:41.147Z,0.00
2023-12-22T02:52:41.143Z,0.00
2023-12-22T02:53:41.134Z,0.00
2023-12-22T02:54:41.218Z,0.00
2023-12-22T02:55:41.160Z,0.00
2023-12-22T02:56:41.150Z,0.00
2023-12-22T02:57:41.170Z,0.00
2023-12-22T02:58:41.260Z,0.00
2023-12-22T02:59:41.147Z,0.00
2023-12-22T03:00:41.219Z,0.00
2023-12-22T03:01:41.174Z,0.00
2023-12-22T03:02:41.171Z,0.00
2023-12-22T03:03:41.187Z,0.00
2023-12-22T03:04:41.198Z,0.00
2023-12-22T03:05:41.183Z,0.00
2023-12-22T03:06:41.173Z,0.00
2023-12-22T03:07:41.217Z,0.00
2023-12-22T03:08:41.181Z,0.00
2023-12-22T03:09:41.189Z,0.00
2023-12-22T03:10:41.221Z,0.00
2023-12-22T03:11:41.202Z,0.00
2023-12-22T03:12:41.197Z,0.00
2023-12-22T03:13:41.262Z,0.00
2023-12-22T03:14:41.202Z,0.00
2023-12-22T03:15:41.199Z,0.00
2023-12-22T03:16:42.946Z,0.00
2023-12-22T03:17:41.249Z,0.00
2023-12-22T03:18:41.232Z,0.00
2023-12-22T03:19:41.258Z,0.00
2023-12-22T03:20:41.238Z,0.00
2023-12-22T03:21:41.219Z,0.00
2023-12-22T03:22:41.279Z,0.00
2023-12-22T03:23:41.238Z,0.00
2023-12-22T03:24:41.236Z,0.00
2023-12-22T03:25:41.267Z,0.00
2023-12-22T03:26:41.233Z,0.00
2023-12-22T03:27:41.241Z,0.00
2023-12-22T03:28:41.293Z,0.00
2023-12-22T03:29:41.263Z,0.00
2023-12-22T03:30:41.304Z,0.00
2023-12-22T03:31:41.347Z,0.00
2023-12-22T03:32:41.323Z,0.00
2023-12-22T03:33:41.277Z,0.00
2023-12-22T03:34:41.312Z,0.00
2023-12-22T03:35:41.269Z,0.00
2023-12-22T03:36:41.267Z,0.00
2023-12-22T03:37:41.319Z,0.00
2023-12-22T03:38:41.274Z,0.00
2023-12-22T03:39:41.277Z,0.00
2023-12-22T03:40:41.358Z,0.00
2023-12-22T03:41:41.282Z,0.00
2023-12-22T03:42:41.283Z,0.00
2023-12-22T03:43:41.305Z,0.00
2023-12-22T03:44:41.285Z,0.00
2023-12-22T03:45:41.300Z,0.00
2023-12-22T03:46:41.314Z,0.00
2023-12-22T03:47:41.345Z,0.00
2023-12-22T03:48:41.362Z,0.00
2023-12-22T03:49:41.393Z,0.00
2023-12-22T03:50:41.307Z,0.00
2023-12-22T03:51:41.308Z,0.00
2023-12-22T03:52:41.368Z,0.00
2023-12-22T03:53:41.314Z,0.00
2023-12-22T03:54:41.325Z,0.00
2023-12-22T03:55:41.377Z,0.00
2023-12-22T03:56:41.322Z,0.00
2023-12-22T03:57:41.328Z,0.00
2023-12-22T03:58:41.360Z,0.00
2023-12-22T03:59:41.355Z,0.00
2023-12-22T04:00:41.391Z,0.00
2023-12-22T04:01:41.409Z,0.00
2023-12-22T04:02:41.370Z,0.00
2023-12-22T04:03:41.353Z,0.00
2023-12-22T04:04:41.397Z,0.00
2023-12-22T04:05:41.383Z,0.00
2023-12-22T04:06:41.349Z,0.00
2023-12-22T04:07:41.374Z,0.00
2023-12-22T04:08:41.364Z,0.00
2023-12-22T04:09:41.366Z,0.00
2023-12-22T04:10:41.387Z,0.00
2023-12-22T04:11:41.383Z,0.00
2023-12-22T04:12:41.379Z,0.00
2023-12-22T04:13:41.414Z,0.00
2023-12-22T04:14:41.388Z,0.00
2023-12-22T04:15:41.391Z,0.00
2023-12-22T04:16:41.412Z,0.00
2023-12-22T04:17:41.389Z,0.00
2023-12-22T04:18:41.479Z,0.00
2023-12-22T04:19:41.569Z,0.00
2023-12-22T04:20:41.467Z,0.00
2023-12-22T04:21:41.433Z,0.00
2023-12-22T04:22:41.430Z,0.00
2023-12-22T04:23:41.403Z,0.00
2023-12-22T04:24:41.409Z,0.00
2023-12-22T04:25:41.423Z,0.00
2023-12-22T04:26:41.414Z,0.00
2023-12-22T04:27:41.420Z,0.00
2023-12-22T04:28:41.448Z,0.00
2023-12-22T04:29:41.437Z,0.00
2023-12-22T04:30:41.428Z,0.00
2023-12-22T04:31:41.444Z,0.00
2023-12-22T04:32:41.468Z,0.00
2023-12-22T04:33:41.480Z,0.00
2023-12-22T04:34:41.465Z,0.00
2023-12-22T04:35:41.451Z,0.00
2023-12-22T04:36:41.473Z,0.00
2023-12-22T04:37:41.460Z,0.00
2023-12-22T04:38:41.459Z,0.00
2023-12-22T04:39:41.456Z,0.00
2023-12-22T04:40:41.525Z,0.00
2023-12-22T04:41:41.475Z,0.00
2023-12-22T04:42:41.466Z,0.00
2023-12-22T04:43:41.534Z,0.00
2023-12-22T04:44:41.496Z,0.00
2023-12-22T04:45:41.476Z,0.00
2023-12-22T04:46:41.512Z,0.00
2023-12-22T04:47:41.584Z,0.00
2023-12-22T04:48:41.541Z,0.00
2023-12-22T04:49:41.512Z,0.00
2023-12-22T04:50:41.495Z,0.00
2023-12-22T04:51:41.497Z,0.00
2023-12-22T04:52:41.572Z,0.00
2023-12-22T04:53:41.551Z,0.00
2023-12-22T04:54:41.503Z,0.00
2023-12-22T04:55:41.538Z,0.00
2023-12-22T04:56:41.511Z,0.00
2023-12-22T04:57:41.511Z,0.00
2023-12-22T04:58:41.554Z,0.00
2023-12-22T04:59:41.518Z,0.00
2023-12-22T05:00:41.571Z,0.00
2023-12-22T05:01:41.577Z,0.00
2023-12-22T05:02:41.528Z,0.00
2023-12-22T05:03:41.536Z,0.00
2023-12-22T05:04:41.558Z,0.00
2023-12-22T05:05:41.591Z,0.00
2023-12-22T05:06:41.544Z,0.00
2023-12-22T05:07:41.655Z,0.00
2023-12-22T05:08:41.564Z,0.00
2023-12-22T05:09:41.547Z,0.00
2023-12-22T05:10:41.598Z,0.00
2023-12-22T05:11:41.560Z,0.00
2023-12-22T05:12:41.568Z,0.00
2023-12-22T05:13:41.689Z,0.00
2023-12-22T05:14:41.573Z,0.00
2023-12-22T05:15:41.578Z,0.00
2023-12-22T05:16:41.636Z,0.00
2023-12-22T05:17:41.755Z,0.00
2023-12-22T05:18:41.747Z,0.00
2023-12-22T05:19:41.672Z,0.00
2023-12-22T05:20:41.587Z,0.00
2023-12-22T05:21:41.604Z,0.00
2023-12-22T05:22:41.693Z,0.00
2023-12-22T05:23:41.612Z,0.00
2023-12-22T05:24:41.618Z,0.00
2023-12-22T05:25:41.646Z,0.00
2023-12-22T05:26:41.604Z,0.00
2023-12-22T05:27:41.606Z,0.00
2023-12-22T05:28:41.636Z,0.00
2023-12-22T05:29:41.621Z,0.00
2023-12-22T05:30:41.626Z,0.00
2023-12-22T05:31:41.705Z,0.00
2023-12-22T05:32:41.651Z,0.00
2023-12-22T05:33:41.631Z,0.00
2023-12-22T05:34:41.697Z,0.00
2023-12-22T05:35:41.840Z,0.00
2023-12-22T05:36:41.634Z,0.00
2023-12-22T05:37:41.671Z,0.00
2023-12-22T05:38:41.649Z,0.00
2023-12-22T05:39:41.645Z,0.00
2023-12-22T05:40:41.698Z,0.00
2023-12-22T05:41:41.664Z,0.00
2023-12-22T05:42:41.655Z,0.00
2023-12-22T05:43:41.704Z,0.00
2023-12-22T05:44:41.662Z,0.00
2023-12-22T05:45:41.662Z,0.00
2023-12-22T05:46:41.755Z,0.00
2023-12-22T05:47:41.910Z,0.00
2023-12-22T05:48:41.719Z,0.00
2023-12-22T05:49:41.746Z,0.00
2023-12-22T05:50:41.764Z,0.00
2023-12-22T05:51:41.678Z,0.00
2023-12-22T05:52:41.707Z,0.00
2023-12-22T05:53:41.696Z,0.00
2023-12-22T05:54:41.688Z,0.00
2023-12-22T05:55:41.745Z,0.00
2023-12-22T05:56:41.718Z,0.00
2023-12-22T05:57:41.739Z,0.00
2023-12-22T05:58:41.745Z,0.00
2023-12-22T05:59:41.702Z,0.00
2023-12-22T06:00:41.724Z,0.00
2023-12-22T06:01:41.747Z,0.00
2023-12-22T06:02:41.711Z,0.00
2023-12-22T06:03:41.714Z,0.00
2023-12-22T06:04:41.769Z,0.00
2023-12-22T06:05:41.908Z,0.00
2023-12-22T06:06:41.843Z,0.00
2023-12-22T06:07:41.741Z,0.00
2023-12-22T06:08:41.731Z,0.00
2023-12-22T06:09:41.726Z,0.00
2023-12-22T06:10:41.783Z,0.00
2023-12-22T06:11:41.741Z,0.00
2023-12-22T06:12:41.799Z,0.00
2023-12-22T06:13:41.784Z,0.00
2023-12-22T06:14:41.765Z,0.00
2023-12-22T06:15:41.746Z,0.00
2023-12-22T06:16:41.775Z,0.00
2023-12-22T06:17:41.816Z,0.00
2023-12-22T06:18:41.891Z,0.00
2023-12-22T06:19:41.794Z,0.00
2023-12-22T06:20:41.773Z,0.00
2023-12-22T06:21:41.763Z,0.00
2023-12-22T06:22:41.795Z,0.00
2023-12-22T06:23:41.815Z,0.00
2023-12-22T06:24:41.786Z,0.00
2023-12-22T06:25:41.825Z,0.00
2023-12-22T06:26:41.784Z,0.00
2023-12-22T06:27:41.777Z,0.00
2023-12-22T06:28:42.357Z,0.00
2023-12-22T06:29:41.786Z,0.00
2023-12-22T06:30:41.789Z,0.00
2023-12-22T06:31:41.809Z,0.00
2023-12-22T06:32:41.875Z,0.00
2023-12-22T06:33:41.866Z,0.00
2023-12-22T06:34:41.809Z,0.00
2023-12-22T06:35:41.836Z,0.00
2023-12-22T06:36:41.804Z,0.00
2023-12-22T06:37:41.821Z,0.00
2023-12-22T06:38:41.811Z,0.00
2023-12-22T06:39:41.815Z,0.00
2023-12-22T06:40:41.843Z,0.00
2023-12-22T06:41:41.820Z,0.00
2023-12-22T06:42:41.820Z,0.00
2023-12-22T06:43:41.840Z,0.00
2023-12-22T06:44:41.851Z,0.00
2023-12-22T06:45:41.828Z,0.00
2023-12-22T06:46:41.938Z,0.00
2023-12-22T06:47:42.001Z,0.00
2023-12-22T06:48:41.896Z,0.00
2023-12-22T06:49:42.059Z,0.00
2023-12-22T06:50:41.909Z,0.00
2023-12-22T06:51:41.844Z,4.00
2023-12-22T06:52:41.879Z,0.00
2023-12-22T06:53:41.846Z,0.00
2023-12-22T06:54:41.852Z,0.00
2023-12-22T06:55:41.914Z,0.00
2023-12-22T06:56:41.873Z,0.00
2023-12-22T06:57:42.402Z,0.00
2023-12-22T06:58:41.964Z,0.00
2023-12-22T06:59:42.917Z,0.00
2023-12-22T07:00:41.950Z,4.00
2023-12-22T07:01:41.903Z,0.00
2023-12-22T07:02:41.968Z,4.00
2023-12-22T07:03:41.912Z,4.00
2023-12-22T07:04:42.019Z,0.00
2023-12-22T07:05:41.895Z,4.00
2023-12-22T07:06:41.892Z,4.00
2023-12-22T07:07:41.924Z,4.00
2023-12-22T07:08:41.900Z,4.00
2023-12-22T07:09:41.898Z,4.00
2023-12-22T07:10:41.907Z,4.00
2023-12-22T07:11:41.894Z,4.00
2023-12-22T07:12:43.485Z,4.00
2023-12-22T07:13:42.936Z,8.00
2023-12-22T07:14:41.917Z,8.00
2023-12-22T07:15:42.909Z,8.00
2023-12-22T07:16:41.958Z,8.00
2023-12-22T07:17:41.985Z,12.00
2023-12-22T07:18:41.985Z,8.00
2023-12-22T07:19:41.955Z,12.00
2023-12-22T07:20:41.924Z,8.00
2023-12-22T07:21:43.107Z,12.00
2023-12-22T07:22:41.975Z,8.00
2023-12-22T07:23:41.927Z,12.00
2023-12-22T07:24:42.693Z,12.00
2023-12-22T07:25:41.948Z,12.00
2023-12-22T07:26:41.935Z,12.00
2023-12-22T07:27:41.949Z,16.00
2023-12-22T07:28:41.967Z,16.00
2023-12-22T07:29:41.949Z,16.00
2023-12-22T07:30:41.946Z,20.00
2023-12-22T07:31:41.975Z,16.00
2023-12-22T07:32:43.163Z,20.00
2023-12-22T07:33:41.995Z,24.00
2023-12-22T07:34:42.342Z,20.00
2023-12-22T07:35:42.637Z,20.00
2023-12-22T07:36:45.994Z,24.00
2023-12-22T07:37:42.045Z,24.00
2023-12-22T07:38:42.193Z,28.00
2023-12-22T07:39:41.970Z,32.00
2023-12-22T07:40:42.005Z,32.00
2023-12-22T07:41:41.979Z,32.00
2023-12-22T07:42:41.988Z,32.00
2023-12-22T07:43:41.989Z,32.00
2023-12-22T07:44:41.988Z,28.00
2023-12-22T07:45:41.979Z,28.00
2023-12-22T07:46:43.333Z,24.00
2023-12-22T07:47:42.008Z,24.00
2023-12-22T07:48:42.065Z,28.00
2023-12-22T07:49:42.068Z,24.00
2023-12-22T07:50:42.034Z,20.00
2023-12-22T07:51:42.222Z,20.00
2023-12-22T07:52:43.069Z,16.00
2023-12-22T07:53:42.860Z,20.00
2023-12-22T07:54:42.081Z,16.00
2023-12-22T07:55:42.071Z,16.00
2023-12-22T07:56:42.008Z,16.00
2023-12-22T07:57:42.024Z,12.00
2023-12-22T07:58:42.057Z,12.00
2023-12-22T07:59:42.103Z,12.00
2023-12-22T08:00:42.058Z,12.00
2023-12-22T08:01:42.043Z,12.00
2023-12-22T08:02:42.030Z,16.00
2023-12-22T08:03:42.050Z,12.00
2023-12-22T08:04:42.075Z,12.00
2023-12-22T08:05:42.076Z,12.00
2023-12-22T08:06:42.160Z,12.00
2023-12-22T08:07:42.046Z,16.00
2023-12-22T08:08:42.044Z,16.00
2023-12-22T08:09:42.039Z,12.00
2023-12-22T08:10:42.093Z,16.00
2023-12-22T08:11:42.052Z,16.00
2023-12-22T08:12:42.043Z,16.00
2023-12-22T08:13:42.063Z,16.00
2023-12-22T08:14:42.059Z,20.00
2023-12-22T08:15:42.062Z,20.00
2023-12-22T08:16:42.153Z,20.00
2023-12-22T08:17:42.120Z,24.00
2023-12-22T08:18:42.160Z,28.00
2023-12-22T08:19:44.654Z,24.00
2023-12-22T08:20:43.957Z,24.00
2023-12-22T08:21:45.552Z,28.00
2023-12-22T08:22:45.556Z,24.00
2023-12-22T08:23:44.452Z,28.00
2023-12-22T08:24:42.164Z,24.00
2023-12-22T08:25:42.251Z,24.00
2023-12-22T08:26:42.089Z,24.00
2023-12-22T08:27:42.080Z,24.00
2023-12-22T08:28:42.092Z,32.00
2023-12-22T08:29:42.107Z,36.00
2023-12-22T08:30:42.108Z,40.00
2023-12-22T08:31:42.127Z,36.00
2023-12-22T08:32:42.142Z,36.00
2023-12-22T08:33:42.175Z,40.00
2023-12-22T08:34:42.158Z,40.00
2023-12-22T08:35:42.098Z,36.00
2023-12-22T08:36:42.402Z,40.00
2023-12-22T08:37:42.117Z,40.00
2023-12-22T08:38:42.557Z,36.00
2023-12-22T08:39:42.103Z,36.00
2023-12-22T08:40:42.385Z,36.00
2023-12-22T08:41:42.171Z,32.00
2023-12-22T08:42:42.123Z,40.00
2023-12-22T08:43:42.132Z,40.00
2023-12-22T08:44:42.188Z,44.00
2023-12-22T08:45:42.125Z,44.00
2023-12-22T08:46:42.169Z,44.00
2023-12-22T08:47:42.143Z,44.00
2023-12-22T08:48:42.212Z,48.00
2023-12-22T08:49:42.152Z,44.00
2023-12-22T08:50:42.132Z,48.00
2023-12-22T08:51:42.153Z,52.00
2023-12-22T08:52:42.184Z,56.00
2023-12-22T08:53:42.145Z,60.00
2023-12-22T08:54:42.140Z,56.00
2023-12-22T08:55:42.164Z,60.00
2023-12-22T08:56:42.189Z,68.00
2023-12-22T08:57:50.149Z,72.00
2023-12-22T08:58:42.174Z,64.00
2023-12-22T08:59:42.157Z,64.00
2023-12-22T09:00:42.165Z,68.00
2023-12-22T09:01:42.262Z,64.00
2023-12-22T09:02:42.184Z,64.00
2023-12-22T09:03:42.161Z,68.00
2023-12-22T09:04:42.245Z,84.00
2023-12-22T09:05:42.178Z,92.00
2023-12-22T09:06:42.169Z,92.00
2023-12-22T09:07:42.214Z,84.00
2023-12-22T09:08:42.201Z,80.00
2023-12-22T09:09:42.190Z,84.00
2023-12-22T09:10:42.192Z,84.00
2023-12-22T09:11:42.184Z,88.00
2023-12-22T09:12:42.183Z,84.00
2023-12-22T09:13:42.210Z,88.00
2023-12-22T09:14:42.187Z,92.00
2023-12-22T09:15:42.193Z,100.00
2023-12-22T09:16:42.212Z,96.00
2023-12-22T09:17:44.893Z,100.00
2023-12-22T09:18:42.283Z,104.00
2023-12-22T09:19:42.262Z,108.00
2023-12-22T09:20:42.216Z,104.00
2023-12-22T09:21:42.206Z,100.00
2023-12-22T09:22:42.223Z,92.00
2023-12-22T09:23:42.214Z,88.00
2023-12-22T09:24:42.238Z,88.00
2023-12-22T09:25:42.233Z,96.00
2023-12-22T09:26:42.217Z,112.00
2023-12-22T09:27:42.230Z,116.00
2023-12-22T09:28:42.247Z,112.00
2023-12-22T09:29:42.237Z,108.00
2023-12-22T09:30:42.233Z,104.00
2023-12-22T09:31:42.317Z,108.00
2023-12-22T09:32:42.378Z,112.00
2023-12-22T09:33:42.384Z,120.00
2023-12-22T09:34:42.291Z,112.00
2023-12-22T09:35:42.250Z,104.00
2023-12-22T09:36:42.245Z,112.00
2023-12-22T09:37:42.309Z,132.00
2023-12-22T09:38:42.258Z,136.00
2023-12-22T09:39:42.257Z,132.00
2023-12-22T09:40:42.336Z,116.00
2023-12-22T09:41:42.260Z,108.00
2023-12-22T09:42:42.259Z,116.00
2023-12-22T09:43:42.277Z,124.00
2023-12-22T09:44:42.268Z,152.00
2023-12-22T09:45:42.282Z,168.00
2023-12-22T09:46:42.297Z,164.00
2023-12-22T09:47:42.341Z,172.00
2023-12-22T09:48:42.308Z,188.00
2023-12-22T09:49:42.322Z,164.00
2023-12-22T09:50:42.283Z,156.00
2023-12-22T09:51:42.284Z,172.00
2023-12-22T09:52:42.323Z,220.00
2023-12-22T09:53:42.290Z,232.00
2023-12-22T09:54:42.313Z,252.00
2023-12-22T09:55:42.315Z,272.00
2023-12-22T09:56:42.319Z,276.00
2023-12-22T09:57:42.298Z,272.00
2023-12-22T09:58:42.406Z,260.00
2023-12-22T09:59:42.366Z,256.00
2023-12-22T10:00:42.345Z,252.00
2023-12-22T10:01:42.336Z,244.00
2023-12-22T10:02:42.310Z,244.00
2023-12-22T10:03:42.798Z,264.00
2023-12-22T10:04:42.352Z,280.00
2023-12-22T10:05:42.340Z,280.00
2023-12-22T10:06:42.322Z,240.00
2023-12-22T10:07:42.452Z,248.00
2023-12-22T10:08:42.335Z,308.00
2023-12-22T10:09:42.341Z,348.00
2023-12-22T10:10:42.393Z,352.00
2023-12-22T10:11:42.340Z,344.00
2023-12-22T10:12:42.365Z,332.00
2023-12-22T10:13:42.375Z,320.00
2023-12-22T10:14:42.368Z,320.00
2023-12-22T10:15:42.372Z,324.00
2023-12-22T10:16:42.421Z,348.00
2023-12-22T10:17:42.425Z,364.00
2023-12-22T10:18:42.556Z,364.00
2023-12-22T10:19:42.451Z,384.00
2023-12-22T10:20:42.358Z,404.00
2023-12-22T10:21:42.361Z,416.00
2023-12-22T10:22:42.388Z,420.00
2023-12-22T10:23:42.370Z,416.00
2023-12-22T10:24:42.365Z,432.00
2023-12-22T10:25:42.471Z,432.00
2023-12-22T10:26:42.379Z,392.00
2023-12-22T10:27:42.381Z,324.00
2023-12-22T10:28:42.453Z,280.00
2023-12-22T10:29:42.422Z,264.00
2023-12-22T10:30:42.387Z,320.00
2023-12-22T10:31:42.459Z,388.00
2023-12-22T10:32:42.417Z,424.00
2023-12-22T10:33:42.436Z,448.00
2023-12-22T10:34:42.435Z,472.00
2023-12-22T10:35:42.400Z,480.00
2023-12-22T10:36:42.401Z,488.00
2023-12-22T10:37:42.456Z,500.00
2023-12-22T10:38:42.425Z,480.00
2023-12-22T10:39:42.440Z,496.00
2023-12-22T10:40:42.438Z,512.00
2023-12-22T10:41:42.431Z,516.00
2023-12-22T10:42:42.429Z,504.00
2023-12-22T10:43:42.574Z,480.00
2023-12-22T10:44:42.456Z,484.00
2023-12-22T10:45:42.438Z,496.00
2023-12-22T10:46:42.458Z,500.00
2023-12-22T10:47:42.504Z,480.00
2023-12-22T10:48:42.492Z,440.00
2023-12-22T10:49:42.483Z,432.00
2023-12-22T10:50:42.465Z,456.00
2023-12-22T10:51:42.464Z,468.00
2023-12-22T10:52:42.520Z,472.00
2023-12-22T10:53:42.463Z,472.00
2023-12-22T10:54:42.459Z,464.00
2023-12-22T10:55:42.510Z,456.00
2023-12-22T10:56:42.478Z,432.00
2023-12-22T10:57:42.474Z,420.00
2023-12-22T10:58:42.542Z,408.00
2023-12-22T10:59:46.970Z,428.00
2023-12-22T11:00:42.542Z,444.00
2023-12-22T11:01:42.612Z,472.00
2023-12-22T11:02:42.543Z,484.00
2023-12-22T11:03:42.515Z,448.00
2023-12-22T11:04:42.518Z,408.00
2023-12-22T11:05:42.511Z,396.00
2023-12-22T11:06:42.529Z,368.00
2023-12-22T11:07:42.590Z,368.00
2023-12-22T11:08:42.523Z,360.00
2023-12-22T11:09:42.514Z,372.00
2023-12-22T11:10:42.538Z,392.00
2023-12-22T11:11:42.520Z,396.00
2023-12-22T11:12:42.526Z,396.00
2023-12-22T11:13:42.607Z,380.00
2023-12-22T11:14:42.530Z,356.00
2023-12-22T11:15:42.533Z,328.00
2023-12-22T11:16:42.641Z,312.00
2023-12-22T11:17:42.576Z,332.00
2023-12-22T11:18:42.596Z,344.00
2023-12-22T11:19:42.649Z,356.00
2023-12-22T11:20:42.548Z,364.00
2023-12-22T11:21:42.552Z,356.00
2023-12-22T11:22:42.581Z,344.00
2023-12-22T11:23:42.572Z,348.00
2023-12-22T11:24:42.565Z,316.00
2023-12-22T11:25:42.593Z,324.00
2023-12-22T11:26:42.561Z,320.00
2023-12-22T11:27:42.569Z,320.00
2023-12-22T11:28:42.574Z,332.00
2023-12-22T11:29:42.580Z,360.00
2023-12-22T11:30:42.578Z,376.00
2023-12-22T11:31:42.632Z,364.00
2023-12-22T11:32:42.644Z,344.00
2023-12-22T11:33:54.431Z,348.00
2023-12-22T11:34:42.626Z,324.00
2023-12-22T11:35:42.669Z,340.00
2023-12-22T11:36:42.615Z,344.00
2023-12-22T11:37:42.636Z,336.00
2023-12-22T11:38:42.610Z,304.00
2023-12-22T11:39:42.613Z,308.00
2023-12-22T11:40:42.650Z,304.00
2023-12-22T11:41:42.619Z,304.00
2023-12-22T11:42:42.621Z,308.00
2023-12-22T11:43:42.641Z,316.00
2023-12-22T11:44:42.620Z,328.00
2023-12-22T11:45:42.625Z,312.00
2023-12-22T11:46:42.694Z,300.00
2023-12-22T11:47:42.646Z,300.00
2023-12-22T11:48:42.750Z,300.00
2023-12-22T11:49:42.816Z,292.00
2023-12-22T11:50:42.654Z,288.00
2023-12-22T11:51:42.731Z,292.00
2023-12-22T11:52:42.725Z,296.00
2023-12-22T11:53:42.655Z,296.00
2023-12-22T11:54:42.659Z,292.00
2023-12-22T11:55:42.717Z,292.00
2023-12-22T11:56:42.661Z,280.00
2023-12-22T11:57:42.668Z,272.00
2023-12-22T11:58:42.722Z,280.00
2023-12-22T11:59:42.680Z,304.00
2023-12-22T12:00:42.677Z,316.00
2023-12-22T12:01:42.793Z,312.00
2023-12-22T12:02:42.754Z,296.00
2023-12-22T12:03:42.745Z,284.00
2023-12-22T12:04:42.904Z,292.00
2023-12-22T12:05:42.754Z,296.00
2023-12-22T12:06:42.700Z,296.00
2023-12-22T12:07:42.760Z,288.00
2023-12-22T12:08:42.707Z,284.00
2023-12-22T12:09:42.712Z,292.00
2023-12-22T12:10:42.763Z,296.00
2023-12-22T12:11:42.765Z,304.00
2023-12-22T12:12:42.726Z,324.00
2023-12-22T12:13:42.747Z,340.00
2023-12-22T12:14:42.727Z,328.00
2023-12-22T12:15:42.738Z,320.00
2023-12-22T12:16:42.770Z,296.00
2023-12-22T12:17:42.866Z,312.00
2023-12-22T12:18:42.812Z,288.00
2023-12-22T12:19:42.943Z,280.00
2023-12-22T12:20:42.785Z,232.00
2023-12-22T12:21:42.759Z,188.00
2023-12-22T12:22:42.773Z,176.00
2023-12-22T12:23:42.815Z,176.00
2023-12-22T12:24:42.779Z,168.00
2023-12-22T12:25:42.815Z,168.00
2023-12-22T12:26:42.783Z,168.00
2023-12-22T12:27:42.779Z,160.00
2023-12-22T12:28:42.850Z,144.00
2023-12-22T12:29:42.808Z,156.00
2023-12-22T12:30:42.793Z,172.00
2023-12-22T12:31:42.847Z,176.00
2023-12-22T12:32:42.886Z,172.00
2023-12-22T12:33:42.873Z,164.00
2023-12-22T12:34:42.973Z,168.00
2023-12-22T12:35:46.023Z,184.00
2023-12-22T12:36:43.127Z,204.00
2023-12-22T12:37:42.859Z,216.00
2023-12-22T12:38:42.821Z,224.00
2023-12-22T12:39:42.825Z,188.00
2023-12-22T12:40:43.032Z,156.00
2023-12-22T12:41:42.876Z,152.00
2023-12-22T12:42:42.837Z,152.00
2023-12-22T12:43:42.861Z,148.00
2023-12-22T12:44:43.057Z,148.00
2023-12-22T12:45:42.952Z,148.00
2023-12-22T12:46:42.945Z,156.00
2023-12-22T12:47:43.020Z,184.00
2023-12-22T12:48:42.953Z,200.00
2023-12-22T12:49:43.112Z,208.00
2023-12-22T12:50:42.950Z,216.00
2023-12-22T12:51:42.874Z,228.00
2023-12-22T12:52:42.906Z,244.00
2023-12-22T12:53:42.906Z,256.00
2023-12-22T12:54:42.892Z,284.00
2023-12-22T12:55:42.915Z,288.00
2023-12-22T12:56:42.888Z,256.00
2023-12-22T12:57:42.915Z,220.00
2023-12-22T12:58:42.931Z,192.00
2023-12-22T12:59:42.903Z,188.00